Schillplate — ZDJJ8 — position and weather

sailwx.info

Track history (hours):
 
Tides and Currents Weather Stations Pressure Air Temp Water Temp Dewpoint Dewpoint Depression Visibility Wind Speed Wind Dir Waves Ship Positions

Schillplate

Last reported at 2016-Jul-26 16:06 UTC. Time now 2016-Jul-28 12:22 UTC.
Position N 55°50' W 006°52'.

Length 86 m; draft 3.8 m.

Type: Cargo ship. MMSI: 236111603.

Date/timePositionNaut miles runAvg speedWind from/ knotsBaromVisibWave heightAir tempDewpointWater temp
2016-Jul-26 16:06N 55°50' W 006°52'610.5
2016-Jul-26 15:32N 55°45' W 006°46'10 9.8
2016-Jul-26 14:33N 55°37' W 006°37'9 9.2
2016-Jul-26 13:34N 55°29' W 006°29'9 9.1
2016-Jul-26 12:33N 55°26' W 006°14'9 8.9
2016-Jul-26 11:33N 55°22' W 005°60'9 9.1
2016-Jul-26 10:33N 55°16' W 005°48'1210.7
2016-Jul-26 09:23N 55°15' W 005°26'  
2016-Jul-22 22:33N 55°14' W 005°39'1111.0
2016-Jul-22 21:34N 55°15' W 005°58'1211.9
2016-Jul-22 20:34N 55°22' W 006°14'1010.4
2016-Jul-22 19:33N 55°29' W 006°29'1010.1
2016-Jul-22 18:34N 55°37' W 006°38'9 9.3
2016-Jul-22 17:34N 55°45' W 006°46'10 9.3
2016-Jul-22 16:31N 55°54' W 006°55'186 8.9
2016-Jul-21 19:30N 58°41' W 004°23'1010.1
2016-Jul-21 18:33N 58°42' W 004°04'1110.8
2016-Jul-21 17:34N 58°42' W 003°44'1312.6
2016-Jul-21 16:34N 58°43' W 003°19'1616.0
2016-Jul-21 15:33N 58°42' W 002°49'22010.4
2016-Jul-20 18:31N 58°06' E 004°05'3110.6
2016-Jul-20 15:33N 57°59' E 005°03'3210.7
2016-Jul-20 12:33N 57°52' E 006°02'1111.0
2016-Jul-20 11:33N 57°50' E 006°22'1111.2
2016-Jul-20 10:33N 57°48' E 006°43'1211.7
2016-Jul-20 09:30N 57°47' E 007°06'1311.8
2016-Jul-20 08:25N 57°47' E 007°30'10310.4
2016-Jul-19 22:32N 57°47' E 010°42'9510.5
2016-Jul-19 13:33N 56°13' E 010°51'1110.8
2016-Jul-19 12:33N 56°05' E 010°38'1010.1
2016-Jul-19 11:33N 56°08' E 010°21'4 4.1
2016-Jul-19 10:32N 56°09' E 010°13'0 0.0
2016-Jul-19 09:32N 56°09' E 010°13'0 0.0
2016-Jul-19 08:32N 56°09' E 010°13'0 0.0
2016-Jul-19 07:32N 56°09' E 010°13'1 0.2
2016-Jul-19 04:32N 56°09' E 010°14'0 0.0
2016-Jul-19 03:32N 56°09' E 010°14'0 0.0
2016-Jul-19 02:32N 56°09' E 010°14'0 0.0
2016-Jul-19 01:32N 56°09' E 010°14'0 0.0
2016-Jul-19 00:32N 56°09' E 010°14'0 0.0
2016-Jul-18 23:32N 56°09' E 010°14'0 0.0
2016-Jul-18 22:32N 56°09' E 010°14'0 0.0
2016-Jul-18 21:32N 56°09' E 010°14'0 0.0
2016-Jul-18 20:23N 56°09' E 010°14'0 0.0
2016-Jul-18 19:32N 56°09' E 010°14'0 0.0
2016-Jul-18 18:32N 56°09' E 010°14'0 0.0
2016-Jul-18 17:32N 56°09' E 010°14'0 0.0
2016-Jul-18 16:32N 56°09' E 010°14'0 0.0
2016-Jul-18 15:32N 56°09' E 010°14'0 0.0
2016-Jul-18 14:32N 56°09' E 010°14'0 0.0
2016-Jul-18 13:32N 56°09' E 010°14'0 0.0
2016-Jul-18 12:32N 56°09' E 010°14'0 0.0
2016-Jul-18 11:32N 56°09' E 010°14'0 0.0
2016-Jul-18 10:32N 56°09' E 010°14'0 0.0
2016-Jul-18 09:32N 56°09' E 010°14'0 0.0
2016-Jul-18 08:32N 56°09' E 010°14'0 0.0
2016-Jul-18 07:32N 56°09' E 010°14'0 0.0
2016-Jul-18 06:32N 56°09' E 010°14'0 0.0
2016-Jul-18 05:32N 56°09' E 010°14'0 0.0
2016-Jul-18 04:32N 56°09' E 010°14'0 0.0
2016-Jul-18 03:32N 56°09' E 010°14'0 0.0
2016-Jul-18 02:32N 56°09' E 010°14'0 0.0
2016-Jul-18 01:32N 56°09' E 010°14'0 0.0
2016-Jul-18 00:32N 56°09' E 010°14'0 0.0
2016-Jul-17 23:32N 56°09' E 010°14'0 0.0
2016-Jul-17 22:32N 56°09' E 010°14'0 0.0
2016-Jul-17 21:32N 56°09' E 010°14'0 0.0
2016-Jul-17 20:32N 56°09' E 010°14'0 0.0
2016-Jul-17 19:32N 56°09' E 010°14'0 0.0
2016-Jul-17 18:32N 56°09' E 010°14'0 0.0
2016-Jul-17 17:32N 56°09' E 010°14'0 0.0
2016-Jul-17 16:32N 56°09' E 010°14'0 0.0
2016-Jul-17 15:32N 56°09' E 010°14'0 0.0
2016-Jul-17 14:32N 56°09' E 010°14'0 0.0
2016-Jul-17 13:32N 56°09' E 010°14'0 0.0
2016-Jul-17 12:32N 56°09' E 010°14'0 0.0
2016-Jul-17 11:32N 56°09' E 010°14'0 0.0
2016-Jul-17 10:32N 56°09' E 010°14'0 0.0
2016-Jul-17 09:32N 56°09' E 010°14'0 0.0
2016-Jul-17 08:32N 56°09' E 010°14'0 0.0
2016-Jul-17 07:29N 56°09' E 010°14'6 6.2
2016-Jul-17 06:33N 56°07' E 010°23'18 9.1
2016-Jul-17 04:33N 56°14' E 010°53'78 9.7
2016-Jul-16 20:29N 57°32' E 010°44'1010.4
2016-Jul-16 19:33N 57°42' E 010°45'8 8.1
2016-Jul-16 18:30N 57°46' E 010°31'1511.7
2016-Jul-16 17:12N 57°45' E 010°03'1211.3
2016-Jul-16 16:07N 57°44' E 009°40'  
Track history (hours):
 
Tides and Currents Weather Stations Pressure Air Temp Water Temp Dewpoint Dewpoint Depression Visibility Wind Speed Wind Dir Waves Ship Positions

Schillplate

Last reported at 2016-Jul-26 16:06 UTC. Time now 2016-Jul-28 12:22 UTC.
Position N 55°50' W 006°52'.

Length 86 m; draft 3.8 m.

Type: Cargo ship. MMSI: 236111603.

Date/timePositionNaut miles runAvg speedWind from/ knotsBaromVisibWave heightAir tempDewpointWater temp
2016-Jul-26 16:06N 55°50' W 006°52'610.5
2016-Jul-26 15:32N 55°45' W 006°46'10 9.8
2016-Jul-26 14:33N 55°37' W 006°37'9 9.2
2016-Jul-26 13:34N 55°29' W 006°29'9 9.1
2016-Jul-26 12:33N 55°26' W 006°14'9 8.9
2016-Jul-26 11:33N 55°22' W 005°60'9 9.1
2016-Jul-26 10:33N 55°16' W 005°48'1210.7
2016-Jul-26 09:23N 55°15' W 005°26'  
2016-Jul-22 22:33N 55°14' W 005°39'1111.0
2016-Jul-22 21:34N 55°15' W 005°58'1211.9
2016-Jul-22 20:34N 55°22' W 006°14'1010.4
2016-Jul-22 19:33N 55°29' W 006°29'1010.1
2016-Jul-22 18:34N 55°37' W 006°38'9 9.3
2016-Jul-22 17:34N 55°45' W 006°46'10 9.3
2016-Jul-22 16:31N 55°54' W 006°55'186 8.9
2016-Jul-21 19:30N 58°41' W 004°23'1010.1
2016-Jul-21 18:33N 58°42' W 004°04'1110.8
2016-Jul-21 17:34N 58°42' W 003°44'1312.6
2016-Jul-21 16:34N 58°43' W 003°19'1616.0
2016-Jul-21 15:33N 58°42' W 002°49'22010.4
2016-Jul-20 18:31N 58°06' E 004°05'3110.6
2016-Jul-20 15:33N 57°59' E 005°03'3210.7
2016-Jul-20 12:33N 57°52' E 006°02'1111.0
2016-Jul-20 11:33N 57°50' E 006°22'1111.2
2016-Jul-20 10:33N 57°48' E 006°43'1211.7
2016-Jul-20 09:30N 57°47' E 007°06'1311.8
2016-Jul-20 08:25N 57°47' E 007°30'10310.4
2016-Jul-19 22:32N 57°47' E 010°42'9510.5
2016-Jul-19 13:33N 56°13' E 010°51'1110.8
2016-Jul-19 12:33N 56°05' E 010°38'1010.1
2016-Jul-19 11:33N 56°08' E 010°21'4 4.1
2016-Jul-19 10:32N 56°09' E 010°13'0 0.0
2016-Jul-19 09:32N 56°09' E 010°13'0 0.0
2016-Jul-19 08:32N 56°09' E 010°13'0 0.0
2016-Jul-19 07:32N 56°09' E 010°13'1 0.2
2016-Jul-19 04:32N 56°09' E 010°14'0 0.0
2016-Jul-19 03:32N 56°09' E 010°14'0 0.0
2016-Jul-19 02:32N 56°09' E 010°14'0 0.0
2016-Jul-19 01:32N 56°09' E 010°14'0 0.0
2016-Jul-19 00:32N 56°09' E 010°14'0 0.0
2016-Jul-18 23:32N 56°09' E 010°14'0 0.0
2016-Jul-18 22:32N 56°09' E 010°14'0 0.0
2016-Jul-18 21:32N 56°09' E 010°14'0 0.0
2016-Jul-18 20:23N 56°09' E 010°14'0 0.0
2016-Jul-18 19:32N 56°09' E 010°14'0 0.0
2016-Jul-18 18:32N 56°09' E 010°14'0 0.0
2016-Jul-18 17:32N 56°09' E 010°14'0 0.0
2016-Jul-18 16:32N 56°09' E 010°14'0 0.0
2016-Jul-18 15:32N 56°09' E 010°14'0 0.0
2016-Jul-18 14:32N 56°09' E 010°14'0 0.0
2016-Jul-18 13:32N 56°09' E 010°14'0 0.0
2016-Jul-18 12:32N 56°09' E 010°14'0 0.0
2016-Jul-18 11:32N 56°09' E 010°14'0 0.0
2016-Jul-18 10:32N 56°09' E 010°14'0 0.0
2016-Jul-18 09:32N 56°09' E 010°14'0 0.0
2016-Jul-18 08:32N 56°09' E 010°14'0 0.0
2016-Jul-18 07:32N 56°09' E 010°14'0 0.0
2016-Jul-18 06:32N 56°09' E 010°14'0 0.0
2016-Jul-18 05:32N 56°09' E 010°14'0 0.0
2016-Jul-18 04:32N 56°09' E 010°14'0 0.0
2016-Jul-18 03:32N 56°09' E 010°14'0 0.0
2016-Jul-18 02:32N 56°09' E 010°14'0 0.0
2016-Jul-18 01:32N 56°09' E 010°14'0 0.0
2016-Jul-18 00:32N 56°09' E 010°14'0 0.0
2016-Jul-17 23:32N 56°09' E 010°14'0 0.0
2016-Jul-17 22:32N 56°09' E 010°14'0 0.0
2016-Jul-17 21:32N 56°09' E 010°14'0 0.0
2016-Jul-17 20:32N 56°09' E 010°14'0 0.0
2016-Jul-17 19:32N 56°09' E 010°14'0 0.0
2016-Jul-17 18:32N 56°09' E 010°14'0 0.0
2016-Jul-17 17:32N 56°09' E 010°14'0 0.0
2016-Jul-17 16:32N 56°09' E 010°14'0 0.0
2016-Jul-17 15:32N 56°09' E 010°14'0 0.0
2016-Jul-17 14:32N 56°09' E 010°14'0 0.0
2016-Jul-17 13:32N 56°09' E 010°14'0 0.0
2016-Jul-17 12:32N 56°09' E 010°14'0 0.0
2016-Jul-17 11:32N 56°09' E 010°14'0 0.0
2016-Jul-17 10:32N 56°09' E 010°14'0 0.0
2016-Jul-17 09:32N 56°09' E 010°14'0 0.0
2016-Jul-17 08:32N 56°09' E 010°14'0 0.0
2016-Jul-17 07:29N 56°09' E 010°14'6 6.2
2016-Jul-17 06:33N 56°07' E 010°23'18 9.1
2016-Jul-17 04:33N 56°14' E 010°53'78 9.7
2016-Jul-16 20:29N 57°32' E 010°44'1010.4
2016-Jul-16 19:33N 57°42' E 010°45'8 8.1
2016-Jul-16 18:30N 57°46' E 010°31'1511.7
2016-Jul-16 17:12N 57°45' E 010°03'1211.3
2016-Jul-16 16:07N 57°44' E 009°40'  

Dump ship's entire track history